• Join FlightAware (Why Join?)
  • Login
  • US Flag 
04:08AM EDT


 

Airport Tracker/Info


-or-


 

Live Flight TrackerFlight Track Log ✈ UAL582 ✈ 01-Jul-2013 ✈ CYYZ - KORD

Flight Track Log - Related Links

Times and Time Zones

All times are in EDT time to prevent confusion due to time zone crossing. See the UAL582 flight status page for this flight to view local times or setup timezone preferences in your user account.

Time Position Orientation Groundspeed Altitude Reporting Facility
EDT Latitude Longitude Course Direction KTS MPH feet Rate Location/Type
05:41PM 43.7167 -79.5833 277° West 170 196 2,700  Level Toronto Center
05:42PM 43.7667 -79.5667 14° North 220 253 4,800 2,100 Climbing Toronto Center
05:43PM 43.8167 -79.6333 316° Northwest 280 322 6,900 1,080 Climbing Toronto Center
05:44PM 43.8167 -79.7500 270° West 300 345 7,000 960 Climbing Toronto Center
05:45PM 43.8000 -79.8667 259° West 300 345 8,900 1,860 Climbing Toronto Center
05:46PM 43.7247 -80.3045 277° West  Level FlightAware Approximate
05:46PM 43.8000 -79.9833 270° West 300 345 10,800  Level Toronto Center
05:47PM 43.7833 -80.1167 260° West 370 426 13,000 2,280 Climbing Toronto Center
05:48PM 43.7667 -80.2500 260° West 370 426 15,400 2,400 Climbing Toronto Center
05:49PM 43.7500 -80.4167 262° West 390 449 17,800 2,220 Climbing Toronto Center
05:50PM 43.7333 -80.5500 260° West 390 449 19,900 2,040 Climbing Toronto Center
05:51PM 43.7000 -80.7167 255° West 400 460 21,900 1,620 Climbing Toronto Center
05:52PM 43.6500 -80.8500 243° Southwest 400 460 23,200 1,380 Climbing Toronto Center
05:53PM 43.6333 -81.0167 262° West 410 472 24,700 1,440 Climbing Toronto Center
05:54PM 43.6000 -81.1833 255° West 420 483 26,100 1,200 Climbing Toronto Center
05:55PM 43.5667 -81.3167 251° West 420 483 27,100 900 Climbing Toronto Center
05:56PM 43.5333 -81.4667 253° West 430 495 28,000 420 Climbing Toronto Center
05:57PM 43.5000 -81.6333 255° West 430 495 28,000  Level Toronto Center
05:58PM 43.4667 -81.8000 255° West 440 506 28,000  Level Toronto Center
06:00PM 43.3961 -82.1144 253° West 439 505 28,000  Level Cleveland Center
06:01PM 43.3500 -82.2667 247° West 440 506 28,000  Level Toronto Center
06:02PM 43.3167 -82.4500 256° West 440 506 28,000  Level Toronto Center
06:03PM 43.2833 -82.6167 255° West 450 518 28,000  Level Toronto Center
06:04PM 43.2442 -82.7606 250° West 439 505 28,000  Level Cleveland Center
06:05PM 43.1992 -82.9214 249° West 439 505 28,000  Level Cleveland Center
06:06PM 43.1544 -83.0761 248° West 444 511 28,000  Level Cleveland Center
06:07PM 43.1114 -83.2336 250° West 444 511 28,000  Level Cleveland Center
06:08PM 43.0633 -83.4078 249° West 444 511 28,000  Level Cleveland Center
06:09PM 43.0178 -83.5647 248° West 444 511 28,000  Level Cleveland Center
06:10PM 42.9758 -83.7247 250° West 444 511 28,000  Level Cleveland Center
06:11PM 42.9506 -83.8908 258° West 444 511 28,000  Level Cleveland Center
06:12PM 42.9353 -84.0572 263° West 449 517 28,000  Level Cleveland Center
06:12PM 42.9281 -84.1336 263° West 445 512 28,000  Level Chicago Center
06:13PM 42.9117 -84.2994 262° West 443 510 28,000  Level Chicago Center
06:14PM 42.8956 -84.4678 263° West 447 514 28,000  Level Chicago Center
06:15PM 42.8783 -84.6356 262° West 447 514 28,000  Level Chicago Center
06:16PM 42.8583 -84.8325 262° West 439 505 28,000  Level Chicago Center
06:17PM 42.8403 -84.9992 262° West 444 511 28,000  Level Chicago Center
06:19PM 42.8233 -85.1636 262° West 441 507 28,000  Level Chicago Center
06:20PM 42.8053 -85.3258 261° West 434 499 28,000  Level Chicago Center
06:21PM 42.7875 -85.4872 262° West 432 497 28,000 -120 Level Chicago Center
06:22PM 42.7597 -85.6467 257° West 430 495 27,800 -1,080 Descending Chicago Center
06:23PM 42.7306 -85.8039 256° West 427 491 25,800 -2,040 Descending Chicago Center
06:24PM 42.7031 -85.9589 256° West 420 483 23,600 -2,340 Descending Chicago Center
06:25PM 42.6694 -86.1411 256° West 413 475 21,000 -1,800 Descending Chicago Center
06:26PM 42.6414 -86.2939 256° West 413 475 20,000 -840 Descending Chicago Center
06:27PM 42.6122 -86.4458 255° West 415 478 19,300 -1,260 Descending Chicago Center
06:28PM 42.5831 -86.5961 255° West 413 475 17,500 -1,800 Descending Chicago Center
06:29PM 42.5575 -86.7406 257° West 397 457 15,700 -1,800 Descending Chicago Center
06:30PM 42.5186 -86.8797 249° West 395 455 13,900 -1,860 Descending Chicago Center
06:31PM 42.4736 -87.0433 250° West 384 442 11,900 -1,740 Descending Chicago Center
06:32PM 42.4361 -87.1767 249° West 380 437 10,300 -960 Descending Chicago Center
06:33PM 42.4011 -87.3078 250° West 374 430 10,000 -180 Descending Chicago Center
06:34PM 42.3617 -87.4483 249° West 371 427 10,000  Level Chicago Center
06:35PM 42.3111 -87.5653 240° Southwest 376 433 10,000  Level Chicago Center
06:36PM 42.2294 -87.6475 217° Southwest 368 423 10,000 -300 Level Chicago Center
06:37PM 42.1592 -87.7233 219° Southwest 327 376 9,500 -1,260 Descending Chicago Center
06:38PM 42.1069 -87.8386 239° Southwest 309 356 7,500 -1,620 Descending Chicago Center
06:39PM 42.0833 -87.9000 243° Southwest 308 354 7,000 -360 Descending Chicago TRACON
06:40PM 42.0667 -88.0000 257° West 288 331 7,000 -480 Level Chicago TRACON
06:41PM 42.0667 -88.1000 270° West 256 295 6,100 -840 Descending Chicago TRACON
06:41PM 42.0619 -88.1386 261° West 258 297 5,600 -960 Descending Chicago Center
06:42PM 42.0553 -88.2344 265° West 258 297 4,600 -780 Descending Chicago Center
06:43PM 42.0258 -88.3175 245° Southwest 239 275 4,000 -300 Descending Chicago Center
06:44PM 41.9789 -88.2897 156° South 195 224 4,000  Level Chicago Center
06:45PM 41.9678 -88.2294 104° East 179 206 4,000  Level Chicago Center
06:46PM 41.9675 -88.1703 90° East 165 190 4,000 -420 Level Chicago Center
06:47PM 41.9686 -88.1131 88° East 158 182 3,200 -780 Descending Chicago Center